sensor_id;sensor_type;location;lat;lon;timestamp;pressure;altitude;pressure_sealevel;temperature;humidity
54600;BME280;40500;51.084;16.958;2023-02-22T00:00:38;100380.16;;;5.40;100.00
54600;BME280;40500;51.084;16.958;2023-02-22T00:03:15;100380.14;;;5.35;100.00
54600;BME280;40500;51.084;16.958;2023-02-22T00:05:47;100381.33;;;5.28;100.00
54600;BME280;40500;51.084;16.958;2023-02-22T00:08:23;100381.42;;;5.17;100.00
54600;BME280;40500;51.084;16.958;2023-02-22T00:10:54;100383.11;;;5.08;100.00
54600;BME280;40500;51.084;16.958;2023-02-22T00:13:25;100388.44;;;4.99;100.00
54600;BME280;40500;51.084;16.958;2023-02-22T00:15:58;100392.89;;;4.90;100.00
54600;BME280;40500;51.084;16.958;2023-02-22T00:18:29;100394.19;;;4.79;100.00
54600;BME280;40500;51.084;16.958;2023-02-22T00:21:00;100393.59;;;4.68;100.00
54600;BME280;40500;51.084;16.958;2023-02-22T00:23:32;100395.95;;;4.61;100.00
54600;BME280;40500;51.084;16.958;2023-02-22T00:26:03;100398.15;;;4.54;100.00
54600;BME280;40500;51.084;16.958;2023-02-22T00:28:33;100397.42;;;4.48;100.00
54600;BME280;40500;51.084;16.958;2023-02-22T00:31:06;100397.73;;;4.46;100.00
54600;BME280;40500;51.084;16.958;2023-02-22T00:33:39;100397.41;;;4.48;100.00
54600;BME280;40500;51.084;16.958;2023-02-22T00:36:11;100400.17;;;4.47;100.00
54600;BME280;40500;51.084;16.958;2023-02-22T00:38:43;100397.88;;;4.42;100.00
54600;BME280;40500;51.084;16.958;2023-02-22T00:41:14;100403.59;;;4.39;100.00
54600;BME280;40500;51.084;16.958;2023-02-22T00:43:45;100402.29;;;4.32;100.00
54600;BME280;40500;51.084;16.958;2023-02-22T00:46:17;100401.54;;;4.25;100.00
54600;BME280;40500;51.084;16.958;2023-02-22T00:48:48;100405.65;;;4.20;100.00
54600;BME280;40500;51.084;16.958;2023-02-22T00:51:19;100414.13;;;4.19;100.00
54600;BME280;40500;51.084;16.958;2023-02-22T00:53:52;100413.90;;;4.15;100.00
54600;BME280;40500;51.084;16.958;2023-02-22T00:56:22;100409.67;;;4.07;100.00
54600;BME280;40500;51.084;16.958;2023-02-22T00:58:54;100409.08;;;4.01;100.00
54600;BME280;40500;51.084;16.958;2023-02-22T01:01:25;100411.83;;;3.99;100.00
54600;BME280;40500;51.084;16.958;2023-02-22T01:03:56;100415.90;;;3.90;100.00
54600;BME280;40500;51.084;16.958;2023-02-22T01:06:27;100414.04;;;3.80;100.00
54600;BME280;40500;51.084;16.958;2023-02-22T01:09:00;100418.64;;;3.73;100.00
54600;BME280;40500;51.084;16.958;2023-02-22T01:11:31;100420.45;;;3.65;100.00
54600;BME280;40500;51.084;16.958;2023-02-22T01:14:02;100417.98;;;3.62;100.00
54600;BME280;40500;51.084;16.958;2023-02-22T01:16:33;100411.34;;;3.58;100.00
54600;BME280;40500;51.084;16.958;2023-02-22T01:19:04;100416.34;;;3.55;100.00
54600;BME280;40500;51.084;16.958;2023-02-22T01:21:35;100413.04;;;3.54;100.00
54600;BME280;40500;51.084;16.958;2023-02-22T01:24:06;100415.27;;;3.53;100.00
54600;BME280;40500;51.084;16.958;2023-02-22T01:26:37;100419.07;;;3.52;100.00
54600;BME280;40500;51.084;16.958;2023-02-22T01:29:08;100418.30;;;3.46;100.00
54600;BME280;40500;51.084;16.958;2023-02-22T01:31:49;100414.10;;;3.43;100.00
54600;BME280;40500;51.084;16.958;2023-02-22T01:34:20;100416.19;;;3.43;100.00
54600;BME280;40500;51.084;16.958;2023-02-22T01:36:51;100417.14;;;3.38;100.00
54600;BME280;40500;51.084;16.958;2023-02-22T01:39:21;100414.31;;;3.33;100.00
54600;BME280;40500;51.084;16.958;2023-02-22T01:41:52;100419.13;;;3.31;100.00
54600;BME280;40500;51.084;16.958;2023-02-22T01:44:28;100418.42;;;3.30;100.00
54600;BME280;40500;51.084;16.958;2023-02-22T01:47:01;100420.70;;;3.31;100.00
54600;BME280;40500;51.084;16.958;2023-02-22T01:49:35;100422.27;;;3.33;100.00
54600;BME280;40500;51.084;16.958;2023-02-22T01:52:10;100421.25;;;3.33;100.00
54600;BME280;40500;51.084;16.958;2023-02-22T01:54:45;100418.13;;;3.33;100.00
54600;BME280;40500;51.084;16.958;2023-02-22T01:57:22;100420.20;;;3.32;100.00
54600;BME280;40500;51.084;16.958;2023-02-22T01:59:55;100413.54;;;3.26;100.00
54600;BME280;40500;51.084;16.958;2023-02-22T02:02:28;100410.33;;;3.21;100.00
54600;BME280;40500;51.084;16.958;2023-02-22T02:04:59;100415.29;;;3.16;100.00
54600;BME280;40500;51.084;16.958;2023-02-22T02:07:29;100415.59;;;3.13;100.00
54600;BME280;40500;51.084;16.958;2023-02-22T02:10:01;100409.34;;;3.12;100.00
54600;BME280;40500;51.084;16.958;2023-02-22T02:12:34;100409.80;;;3.07;100.00
54600;BME280;40500;51.084;16.958;2023-02-22T02:15:24;100407.48;;;3.03;100.00
54600;BME280;40500;51.084;16.958;2023-02-22T02:17:59;100411.21;;;2.97;100.00
54600;BME280;40500;51.084;16.958;2023-02-22T02:20:37;100411.90;;;2.96;100.00
54600;BME280;40500;51.084;16.958;2023-02-22T02:23:50;100413.77;;;2.95;100.00
54600;BME280;40500;51.084;16.958;2023-02-22T02:26:43;100414.43;;;2.94;100.00
54600;BME280;40500;51.084;16.958;2023-02-22T02:29:42;100413.40;;;2.94;100.00
54600;BME280;40500;51.084;16.958;2023-02-22T02:32:44;100411.29;;;2.92;100.00
54600;BME280;40500;51.084;16.958;2023-02-22T02:35:24;100411.31;;;2.93;100.00
54600;BME280;40500;51.084;16.958;2023-02-22T02:37:56;100412.58;;;2.97;100.00
54600;BME280;40500;51.084;16.958;2023-02-22T02:40:32;100411.08;;;3.00;100.00
54600;BME280;40500;51.084;16.958;2023-02-22T02:43:13;100413.40;;;3.05;100.00
54600;BME280;40500;51.084;16.958;2023-02-22T02:45:50;100408.59;;;3.07;100.00
54600;BME280;40500;51.084;16.958;2023-02-22T02:48:27;100410.51;;;3.09;100.00
54600;BME280;40500;51.084;16.958;2023-02-22T02:51:02;100408.95;;;3.09;100.00
54600;BME280;40500;51.084;16.958;2023-02-22T02:53:38;100407.10;;;3.12;100.00
54600;BME280;40500;51.084;16.958;2023-02-22T02:56:09;100405.58;;;3.15;100.00
54600;BME280;40500;51.084;16.958;2023-02-22T02:58:54;100403.21;;;3.18;100.00
54600;BME280;40500;51.084;16.958;2023-02-22T03:01:40;100403.76;;;3.20;100.00
54600;BME280;40500;51.084;16.958;2023-02-22T03:04:32;100408.29;;;3.23;100.00
54600;BME280;40500;51.084;16.958;2023-02-22T03:07:16;100405.77;;;3.28;100.00
54600;BME280;40500;51.084;16.958;2023-02-22T03:09:57;100406.69;;;3.32;100.00
54600;BME280;40500;51.084;16.958;2023-02-22T03:12:40;100413.30;;;3.35;100.00
54600;BME280;40500;51.084;16.958;2023-02-22T03:15:21;100410.91;;;3.38;100.00
54600;BME280;40500;51.084;16.958;2023-02-22T03:18:03;100408.48;;;3.38;100.00
54600;BME280;40500;51.084;16.958;2023-02-22T03:20:42;100407.16;;;3.41;100.00
54600;BME280;40500;51.084;16.958;2023-02-22T03:23:23;100407.55;;;3.44;100.00
54600;BME280;40500;51.084;16.958;2023-02-22T03:26:01;100415.55;;;3.48;100.00
54600;BME280;40500;51.084;16.958;2023-02-22T03:28:33;100415.94;;;3.51;100.00
54600;BME280;40500;51.084;16.958;2023-02-22T03:31:08;100411.98;;;3.52;100.00
54600;BME280;40500;51.084;16.958;2023-02-22T03:33:44;100415.27;;;3.54;100.00
54600;BME280;40500;51.084;16.958;2023-02-22T03:36:19;100413.23;;;3.55;100.00
54600;BME280;40500;51.084;16.958;2023-02-22T03:38:56;100413.09;;;3.58;100.00
54600;BME280;40500;51.084;16.958;2023-02-22T03:41:31;100413.48;;;3.62;100.00
54600;BME280;40500;51.084;16.958;2023-02-22T03:44:09;100413.50;;;3.64;100.00
54600;BME280;40500;51.084;16.958;2023-02-22T03:46:42;100413.03;;;3.68;100.00
54600;BME280;40500;51.084;16.958;2023-02-22T03:49:22;100412.55;;;3.71;100.00
54600;BME280;40500;51.084;16.958;2023-02-22T03:51:54;100409.29;;;3.74;100.00
54600;BME280;40500;51.084;16.958;2023-02-22T03:54:25;100414.51;;;3.76;100.00
54600;BME280;40500;51.084;16.958;2023-02-22T03:56:59;100413.50;;;3.78;100.00
54600;BME280;40500;51.084;16.958;2023-02-22T03:59:38;100410.60;;;3.82;100.00
54600;BME280;40500;51.084;16.958;2023-02-22T04:02:09;100418.08;;;3.85;100.00
54600;BME280;40500;51.084;16.958;2023-02-22T04:04:40;100419.86;;;3.89;100.00
54600;BME280;40500;51.084;16.958;2023-02-22T04:07:10;100419.39;;;3.92;100.00
54600;BME280;40500;51.084;16.958;2023-02-22T04:09:42;100418.70;;;3.95;100.00
54600;BME280;40500;51.084;16.958;2023-02-22T04:12:13;100419.77;;;3.96;100.00
54600;BME280;40500;51.084;16.958;2023-02-22T04:14:55;100423.40;;;3.95;100.00
54600;BME280;40500;51.084;16.958;2023-02-22T04:17:25;100423.20;;;3.93;100.00
54600;BME280;40500;51.084;16.958;2023-02-22T04:20:01;100422.86;;;3.93;100.00
54600;BME280;40500;51.084;16.958;2023-02-22T04:22:47;100419.73;;;3.93;100.00
54600;BME280;40500;51.084;16.958;2023-02-22T04:25:18;100420.07;;;3.91;100.00
54600;BME280;40500;51.084;16.958;2023-02-22T04:27:49;100422.50;;;3.92;100.00
54600;BME280;40500;51.084;16.958;2023-02-22T04:30:24;100421.29;;;3.93;100.00
54600;BME280;40500;51.084;16.958;2023-02-22T04:32:55;100421.98;;;3.93;100.00
54600;BME280;40500;51.084;16.958;2023-02-22T04:35:26;100422.88;;;3.94;100.00
54600;BME280;40500;51.084;16.958;2023-02-22T04:37:56;100417.84;;;3.93;100.00
54600;BME280;40500;51.084;16.958;2023-02-22T04:40:28;100419.58;;;3.93;100.00
54600;BME280;40500;51.084;16.958;2023-02-22T04:42:59;100412.09;;;3.91;100.00
54600;BME280;40500;51.084;16.958;2023-02-22T04:45:30;100416.27;;;3.93;100.00
54600;BME280;40500;51.084;16.958;2023-02-22T04:48:00;100416.81;;;3.95;100.00
54600;BME280;40500;51.084;16.958;2023-02-22T04:50:31;100417.18;;;3.98;100.00
54600;BME280;40500;51.084;16.958;2023-02-22T04:53:02;100413.92;;;4.00;100.00
54600;BME280;40500;51.084;16.958;2023-02-22T04:55:35;100408.39;;;4.02;100.00
54600;BME280;40500;51.084;16.958;2023-02-22T04:58:06;100408.08;;;4.04;100.00
54600;BME280;40500;51.084;16.958;2023-02-22T05:00:41;100407.59;;;4.07;100.00
54600;BME280;40500;51.084;16.958;2023-02-22T05:03:12;100408.30;;;4.09;100.00
54600;BME280;40500;51.084;16.958;2023-02-22T05:05:42;100402.09;;;4.09;100.00
54600;BME280;40500;51.084;16.958;2023-02-22T05:08:12;100407.63;;;4.10;100.00
54600;BME280;40500;51.084;16.958;2023-02-22T05:10:43;100408.35;;;4.13;100.00
54600;BME280;40500;51.084;16.958;2023-02-22T05:13:13;100413.56;;;4.14;100.00
54600;BME280;40500;51.084;16.958;2023-02-22T05:15:44;100409.77;;;4.16;100.00
54600;BME280;40500;51.084;16.958;2023-02-22T05:18:16;100410.80;;;4.17;100.00
54600;BME280;40500;51.084;16.958;2023-02-22T05:20:46;100406.83;;;4.16;100.00
54600;BME280;40500;51.084;16.958;2023-02-22T05:23:18;100401.79;;;4.16;100.00
54600;BME280;40500;51.084;16.958;2023-02-22T05:25:49;100404.05;;;4.16;100.00
54600;BME280;40500;51.084;16.958;2023-02-22T05:28:19;100401.98;;;4.18;100.00
54600;BME280;40500;51.084;16.958;2023-02-22T05:30:53;100400.77;;;4.19;100.00
54600;BME280;40500;51.084;16.958;2023-02-22T05:33:27;100397.85;;;4.21;100.00
54600;BME280;40500;51.084;16.958;2023-02-22T05:36:00;100396.28;;;4.21;100.00
54600;BME280;40500;51.084;16.958;2023-02-22T05:38:30;100397.51;;;4.21;100.00
54600;BME280;40500;51.084;16.958;2023-02-22T05:41:01;100399.44;;;4.25;100.00
54600;BME280;40500;51.084;16.958;2023-02-22T05:43:32;100402.09;;;4.27;100.00
54600;BME280;40500;51.084;16.958;2023-02-22T05:46:02;100406.59;;;4.29;100.00
54600;BME280;40500;51.084;16.958;2023-02-22T05:48:33;100407.48;;;4.31;100.00
54600;BME280;40500;51.084;16.958;2023-02-22T05:51:05;100412.16;;;4.30;100.00
54600;BME280;40500;51.084;16.958;2023-02-22T05:53:37;100410.61;;;4.31;100.00
54600;BME280;40500;51.084;16.958;2023-02-22T05:56:10;100420.32;;;4.31;100.00
54600;BME280;40500;51.084;16.958;2023-02-22T05:58:40;100419.11;;;4.32;100.00
54600;BME280;40500;51.084;16.958;2023-02-22T06:01:11;100419.99;;;4.34;100.00
54600;BME280;40500;51.084;16.958;2023-02-22T06:03:42;100417.75;;;4.34;100.00
54600;BME280;40500;51.084;16.958;2023-02-22T06:06:12;100422.79;;;4.35;100.00
54600;BME280;40500;51.084;16.958;2023-02-22T06:08:42;100425.39;;;4.37;100.00
54600;BME280;40500;51.084;16.958;2023-02-22T06:11:13;100422.96;;;4.37;100.00
54600;BME280;40500;51.084;16.958;2023-02-22T06:13:49;100426.27;;;4.38;100.00
54600;BME280;40500;51.084;16.958;2023-02-22T06:16:21;100427.48;;;4.38;100.00
54600;BME280;40500;51.084;16.958;2023-02-22T06:18:52;100428.50;;;4.35;100.00
54600;BME280;40500;51.084;16.958;2023-02-22T06:21:23;100424.49;;;4.32;100.00
54600;BME280;40500;51.084;16.958;2023-02-22T06:23:53;100431.60;;;4.33;100.00
54600;BME280;40500;51.084;16.958;2023-02-22T06:26:24;100433.17;;;4.35;100.00
54600;BME280;40500;51.084;16.958;2023-02-22T06:28:54;100430.10;;;4.39;100.00
54600;BME280;40500;51.084;16.958;2023-02-22T06:31:25;100431.70;;;4.42;100.00
54600;BME280;40500;51.084;16.958;2023-02-22T06:33:57;100437.61;;;4.46;100.00
54600;BME280;40500;51.084;16.958;2023-02-22T06:36:30;100438.52;;;4.50;100.00
54600;BME280;40500;51.084;16.958;2023-02-22T06:39:01;100443.25;;;4.55;100.00
54600;BME280;40500;51.084;16.958;2023-02-22T06:41:31;100443.66;;;4.61;100.00
54600;BME280;40500;51.084;16.958;2023-02-22T06:44:06;100448.21;;;4.68;100.00
54600;BME280;40500;51.084;16.958;2023-02-22T06:46:37;100448.30;;;4.76;100.00
54600;BME280;40500;51.084;16.958;2023-02-22T06:49:08;100451.48;;;4.83;100.00
54600;BME280;40500;51.084;16.958;2023-02-22T06:51:39;100457.95;;;4.90;100.00
54600;BME280;40500;51.084;16.958;2023-02-22T06:54:09;100463.92;;;4.97;100.00
54600;BME280;40500;51.084;16.958;2023-02-22T06:56:41;100466.04;;;5.04;100.00
54600;BME280;40500;51.084;16.958;2023-02-22T06:59:11;100466.44;;;5.10;100.00
54600;BME280;40500;51.084;16.958;2023-02-22T07:01:42;100472.56;;;5.16;100.00
54600;BME280;40500;51.084;16.958;2023-02-22T07:04:13;100475.02;;;5.21;100.00
54600;BME280;40500;51.084;16.958;2023-02-22T07:06:47;100471.77;;;5.27;100.00
54600;BME280;40500;51.084;16.958;2023-02-22T07:09:19;100476.33;;;5.33;100.00
54600;BME280;40500;51.084;16.958;2023-02-22T07:11:51;100475.14;;;5.38;100.00
54600;BME280;40500;51.084;16.958;2023-02-22T07:14:22;100477.44;;;5.45;100.00
54600;BME280;40500;51.084;16.958;2023-02-22T07:16:53;100478.69;;;5.51;100.00
54600;BME280;40500;51.084;16.958;2023-02-22T07:19:23;100476.29;;;5.56;100.00
54600;BME280;40500;51.084;16.958;2023-02-22T07:21:53;100481.02;;;5.64;100.00
54600;BME280;40500;51.084;16.958;2023-02-22T07:24:27;100481.59;;;5.71;100.00
54600;BME280;40500;51.084;16.958;2023-02-22T07:26:58;100483.52;;;5.77;100.00
54600;BME280;40500;51.084;16.958;2023-02-22T07:29:32;100484.07;;;5.81;100.00
54600;BME280;40500;51.084;16.958;2023-02-22T07:32:04;100485.98;;;5.84;100.00
54600;BME280;40500;51.084;16.958;2023-02-22T07:34:35;100487.92;;;5.89;100.00
54600;BME280;40500;51.084;16.958;2023-02-22T07:37:05;100488.45;;;5.93;100.00
54600;BME280;40500;51.084;16.958;2023-02-22T07:39:35;100487.29;;;5.98;100.00
54600;BME280;40500;51.084;16.958;2023-02-22T07:42:06;100489.59;;;6.06;100.00
54600;BME280;40500;51.084;16.958;2023-02-22T07:44:38;100485.61;;;6.11;100.00
54600;BME280;40500;51.084;16.958;2023-02-22T07:47:08;100489.45;;;6.15;100.00
54600;BME280;40500;51.084;16.958;2023-02-22T07:49:41;100489.45;;;6.17;100.00
54600;BME280;40500;51.084;16.958;2023-02-22T07:52:11;100489.83;;;6.22;100.00
54600;BME280;40500;51.084;16.958;2023-02-22T07:54:42;100492.98;;;6.30;100.00
54600;BME280;40500;51.084;16.958;2023-02-22T07:57:15;100493.70;;;6.37;100.00
54600;BME280;40500;51.084;16.958;2023-02-22T07:59:47;100495.11;;;6.41;100.00
54600;BME280;40500;51.084;16.958;2023-02-22T08:02:17;100494.23;;;6.45;100.00
54600;BME280;40500;51.084;16.958;2023-02-22T08:04:47;100490.25;;;6.49;100.00
54600;BME280;40500;51.084;16.958;2023-02-22T08:07:18;100493.21;;;6.53;100.00
54600;BME280;40500;51.084;16.958;2023-02-22T08:09:48;100491.48;;;6.55;100.00
54600;BME280;40500;51.084;16.958;2023-02-22T08:12:19;100491.84;;;6.61;100.00
54600;BME280;40500;51.084;16.958;2023-02-22T08:14:49;100492.90;;;6.69;100.00
54600;BME280;40500;51.084;16.958;2023-02-22T08:17:20;100491.69;;;6.81;100.00
54600;BME280;40500;51.084;16.958;2023-02-22T08:19:53;100490.31;;;6.90;100.00
54600;BME280;40500;51.084;16.958;2023-02-22T08:22:26;100493.79;;;7.00;100.00
54600;BME280;40500;51.084;16.958;2023-02-22T08:24:58;100490.99;;;7.12;100.00
54600;BME280;40500;51.084;16.958;2023-02-22T08:27:29;100492.55;;;7.24;100.00
54600;BME280;40500;51.084;16.958;2023-02-22T08:29:59;100493.95;;;7.33;100.00
54600;BME280;40500;51.084;16.958;2023-02-22T08:32:30;100491.32;;;7.38;100.00
54600;BME280;40500;51.084;16.958;2023-02-22T08:35:01;100487.13;;;7.44;100.00
54600;BME280;40500;51.084;16.958;2023-02-22T08:37:35;100493.58;;;7.49;100.00
54600;BME280;40500;51.084;16.958;2023-02-22T08:40:07;100490.60;;;7.55;100.00
54600;BME280;40500;51.084;16.958;2023-02-22T08:42:39;100485.72;;;7.56;100.00
54600;BME280;40500;51.084;16.958;2023-02-22T08:45:10;100483.96;;;7.60;100.00
54600;BME280;40500;51.084;16.958;2023-02-22T08:47:47;100483.59;;;7.69;100.00
54600;BME280;40500;51.084;16.958;2023-02-22T08:50:20;100477.29;;;7.78;100.00
54600;BME280;40500;51.084;16.958;2023-02-22T08:52:51;100477.42;;;7.88;100.00
54600;BME280;40500;51.084;16.958;2023-02-22T08:55:23;100477.40;;;7.94;100.00
54600;BME280;40500;51.084;16.958;2023-02-22T08:58:00;100470.93;;;8.01;100.00
54600;BME280;40500;51.084;16.958;2023-02-22T09:00:33;100470.36;;;8.09;100.00
54600;BME280;40500;51.084;16.958;2023-02-22T09:03:04;100468.93;;;8.18;100.00
54600;BME280;40500;51.084;16.958;2023-02-22T09:05:35;100474.67;;;8.22;100.00
54600;BME280;40500;51.084;16.958;2023-02-22T09:08:14;100469.09;;;8.19;100.00
54600;BME280;40500;51.084;16.958;2023-02-22T09:10:45;100466.81;;;8.19;100.00
54600;BME280;40500;51.084;16.958;2023-02-22T09:13:16;100468.73;;;8.20;100.00
54600;BME280;40500;51.084;16.958;2023-02-22T09:15:46;100471.54;;;8.20;100.00
54600;BME280;40500;51.084;16.958;2023-02-22T09:18:17;100466.66;;;8.18;100.00
54600;BME280;40500;51.084;16.958;2023-02-22T09:20:50;100471.72;;;8.16;100.00
54600;BME280;40500;51.084;16.958;2023-02-22T09:23:21;100475.93;;;8.14;100.00
54600;BME280;40500;51.084;16.958;2023-02-22T09:25:52;100470.84;;;8.19;100.00
54600;BME280;40500;51.084;16.958;2023-02-22T09:28:22;100470.09;;;8.29;100.00
54600;BME280;40500;51.084;16.958;2023-02-22T09:30:53;100472.65;;;8.38;100.00
54600;BME280;40500;51.084;16.958;2023-02-22T09:33:23;100469.17;;;8.42;100.00
54600;BME280;40500;51.084;16.958;2023-02-22T09:36:00;100466.67;;;8.50;100.00
54600;BME280;40500;51.084;16.958;2023-02-22T09:38:31;100469.16;;;8.46;100.00
54600;BME280;40500;51.084;16.958;2023-02-22T09:41:09;100466.02;;;8.41;100.00
54600;BME280;40500;51.084;16.958;2023-02-22T09:43:46;100461.83;;;8.45;100.00
54600;BME280;40500;51.084;16.958;2023-02-22T09:46:29;100465.48;;;8.49;100.00
54600;BME280;40500;51.084;16.958;2023-02-22T09:49:06;100466.16;;;8.48;100.00
54600;BME280;40500;51.084;16.958;2023-02-22T09:51:46;100468.77;;;8.51;100.00
54600;BME280;40500;51.084;16.958;2023-02-22T09:54:22;100468.75;;;8.54;100.00
54600;BME280;40500;51.084;16.958;2023-02-22T09:56:58;100467.53;;;8.54;100.00
54600;BME280;40500;51.084;16.958;2023-02-22T09:59:34;100462.96;;;8.58;100.00
54600;BME280;40500;51.084;16.958;2023-02-22T10:02:19;100464.45;;;8.69;100.00
54600;BME280;40500;51.084;16.958;2023-02-22T10:05:01;100463.85;;;8.80;100.00
54600;BME280;40500;51.084;16.958;2023-02-22T10:07:40;100463.56;;;8.95;100.00
54600;BME280;40500;51.084;16.958;2023-02-22T10:10:18;100463.62;;;9.07;100.00
54600;BME280;40500;51.084;16.958;2023-02-22T10:12:58;100462.48;;;9.20;100.00
54600;BME280;40500;51.084;16.958;2023-02-22T10:15:38;100459.96;;;9.26;100.00
54600;BME280;40500;51.084;16.958;2023-02-22T10:18:31;100464.45;;;9.32;100.00
54600;BME280;40500;51.084;16.958;2023-02-22T10:21:15;100455.11;;;9.40;100.00
54600;BME280;40500;51.084;16.958;2023-02-22T10:23:56;100453.81;;;9.47;100.00
54600;BME280;40500;51.084;16.958;2023-02-22T10:26:35;100450.77;;;9.54;100.00
54600;BME280;40500;51.084;16.958;2023-02-22T10:29:12;100452.27;;;9.61;100.00
54600;BME280;40500;51.084;16.958;2023-02-22T10:31:54;100452.23;;;9.64;100.00
54600;BME280;40500;51.084;16.958;2023-02-22T10:34:28;100452.21;;;9.65;100.00
54600;BME280;40500;51.084;16.958;2023-02-22T10:37:15;100455.70;;;9.66;100.00
54600;BME280;40500;51.084;16.958;2023-02-22T10:40:00;100453.19;;;9.71;100.00
54600;BME280;40500;51.084;16.958;2023-02-22T10:42:45;100455.28;;;9.73;100.00
54600;BME280;40500;51.084;16.958;2023-02-22T10:45:23;100453.70;;;9.73;100.00
54600;BME280;40500;51.084;16.958;2023-02-22T10:48:06;100448.90;;;9.65;100.00
54600;BME280;40500;51.084;16.958;2023-02-22T10:50:41;100448.20;;;9.64;100.00
54600;BME280;40500;51.084;16.958;2023-02-22T10:53:18;100444.29;;;9.56;100.00
54600;BME280;40500;51.084;16.958;2023-02-22T10:56:12;100445.04;;;9.49;100.00
54600;BME280;40500;51.084;16.958;2023-02-22T10:58:48;100442.77;;;9.50;100.00
54600;BME280;40500;51.084;16.958;2023-02-22T11:01:35;100441.84;;;9.56;100.00
54600;BME280;40500;51.084;16.958;2023-02-22T11:04:18;100438.80;;;9.60;100.00
54600;BME280;40500;51.084;16.958;2023-02-22T11:07:15;100436.36;;;9.60;100.00
54600;BME280;40500;51.084;16.958;2023-02-22T11:10:02;100434.54;;;9.68;100.00
54600;BME280;40500;51.084;16.958;2023-02-22T11:12:39;100425.36;;;9.74;100.00
54600;BME280;40500;51.084;16.958;2023-02-22T11:15:29;100426.38;;;9.78;100.00
54600;BME280;40500;51.084;16.958;2023-02-22T11:17:59;100423.38;;;9.79;100.00
54600;BME280;40500;51.084;16.958;2023-02-22T11:20:32;100421.08;;;9.80;100.00
54600;BME280;40500;51.084;16.958;2023-02-22T11:23:05;100418.81;;;9.81;100.00
54600;BME280;40500;51.084;16.958;2023-02-22T11:25:40;100420.73;;;9.80;100.00
54600;BME280;40500;51.084;16.958;2023-02-22T11:28:17;100417.73;;;9.83;100.00
54600;BME280;40500;51.084;16.958;2023-02-22T11:31:10;100416.64;;;9.86;100.00
54600;BME280;40500;51.084;16.958;2023-02-22T11:33:50;100413.44;;;9.90;100.00
54600;BME280;40500;51.084;16.958;2023-02-22T11:36:33;100411.96;;;9.96;100.00
54600;BME280;40500;51.084;16.958;2023-02-22T11:39:19;100412.83;;;9.97;100.00
54600;BME280;40500;51.084;16.958;2023-02-22T11:41:50;100415.02;;;9.88;100.00
54600;BME280;40500;51.084;16.958;2023-02-22T11:44:26;100415.23;;;9.88;100.00
54600;BME280;40500;51.084;16.958;2023-02-22T11:46:56;100416.08;;;9.88;100.00
54600;BME280;40500;51.084;16.958;2023-02-22T11:49:35;100413.38;;;9.81;100.00
54600;BME280;40500;51.084;16.958;2023-02-22T11:52:23;100414.17;;;9.75;100.00
54600;BME280;40500;51.084;16.958;2023-02-22T11:55:06;100413.94;;;9.78;100.00
54600;BME280;40500;51.084;16.958;2023-02-22T11:58:29;100414.87;;;9.75;100.00
54600;BME280;40500;51.084;16.958;2023-02-22T12:01:09;100414.02;;;9.71;100.00
54600;BME280;40500;51.084;16.958;2023-02-22T12:04:07;100405.91;;;9.77;100.00
54600;BME280;40500;51.084;16.958;2023-02-22T12:06:52;100404.28;;;9.95;100.00
54600;BME280;40500;51.084;16.958;2023-02-22T12:09:35;100407.34;;;10.15;100.00
54600;BME280;40500;51.084;16.958;2023-02-22T12:12:16;100407.29;;;10.32;100.00
54600;BME280;40500;51.084;16.958;2023-02-22T12:14:58;100408.31;;;10.46;100.00
54600;BME280;40500;51.084;16.958;2023-02-22T12:17:43;100403.21;;;10.48;100.00
54600;BME280;40500;51.084;16.958;2023-02-22T12:20:33;100398.55;;;10.43;100.00
54600;BME280;40500;51.084;16.958;2023-02-22T12:23:15;100400.84;;;10.42;100.00
54600;BME280;40500;51.084;16.958;2023-02-22T12:25:57;100403.23;;;10.47;100.00
54600;BME280;40500;51.084;16.958;2023-02-22T12:28:34;100404.73;;;10.62;100.00
54600;BME280;40500;51.084;16.958;2023-02-22T12:31:17;100405.36;;;10.67;100.00
54600;BME280;40500;51.084;16.958;2023-02-22T12:33:54;100405.13;;;10.70;100.00
54600;BME280;40500;51.084;16.958;2023-02-22T12:36:33;100406.02;;;10.70;100.00
54600;BME280;40500;51.084;16.958;2023-02-22T12:39:29;100407.02;;;10.62;100.00
54600;BME280;40500;51.084;16.958;2023-02-22T12:42:26;100407.34;;;10.63;100.00
54600;BME280;40500;51.084;16.958;2023-02-22T12:45:04;100404.63;;;10.69;100.00
54600;BME280;40500;51.084;16.958;2023-02-22T12:47:51;100400.30;;;10.76;100.00
54600;BME280;40500;51.084;16.958;2023-02-22T12:50:27;100396.89;;;10.71;100.00
54600;BME280;40500;51.084;16.958;2023-02-22T12:53:11;100394.29;;;10.70;100.00
54600;BME280;40500;51.084;16.958;2023-02-22T12:56:11;100395.52;;;10.80;100.00
54600;BME280;40500;51.084;16.958;2023-02-22T12:58:50;100393.83;;;10.96;100.00
54600;BME280;40500;51.084;16.958;2023-02-22T13:01:37;100389.36;;;10.92;100.00
54600;BME280;40500;51.084;16.958;2023-02-22T13:04:16;100391.80;;;10.92;100.00
54600;BME280;40500;51.084;16.958;2023-02-22T13:07:06;100392.48;;;11.03;100.00
54600;BME280;40500;51.084;16.958;2023-02-22T13:12:54;100382.65;;;10.84;100.00
54600;BME280;40500;51.084;16.958;2023-02-22T13:15:42;100380.79;;;10.70;100.00
54600;BME280;40500;51.084;16.958;2023-02-22T13:18:27;100382.77;;;10.67;100.00
54600;BME280;40500;51.084;16.958;2023-02-22T13:21:10;100378.77;;;10.75;100.00
54600;BME280;40500;51.084;16.958;2023-02-22T13:24:03;100379.02;;;10.82;100.00